createdAt,value
2022-08-08T00:02:03.388Z,61.82
2022-08-08T00:04:28.062Z,62.45
2022-08-08T00:06:59.113Z,62.09
2022-08-08T00:09:44.209Z,62.68
2022-08-08T00:12:16.229Z,62.19
2022-08-08T00:15:00.731Z,62.49
2022-08-08T00:18:01.678Z,62.32
2022-08-08T00:20:36.354Z,62.30
2022-08-08T00:23:08.136Z,62.21
2022-08-08T00:25:46.332Z,62.57
2022-08-08T00:28:34.888Z,62.26
2022-08-08T00:32:28.158Z,62.62
2022-08-08T00:34:20.424Z,62.73
2022-08-08T00:36:54.978Z,62.76
2022-08-08T00:41:09.555Z,62.85
2022-08-08T00:42:46.150Z,62.67
2022-08-08T00:45:44.569Z,62.60
2022-08-08T00:48:59.244Z,63.18
2022-08-08T00:51:58.420Z,62.86
2022-08-08T00:54:43.454Z,63.11
2022-08-08T00:57:40.831Z,63.68
2022-08-08T01:00:10.917Z,63.23
2022-08-08T01:03:57.440Z,63.33
2022-08-08T01:06:26.994Z,63.03
2022-08-08T01:09:51.628Z,63.05
2022-08-08T01:12:36.717Z,63.03
2022-08-08T01:15:43.681Z,63.51
2022-08-08T01:18:54.441Z,63.57
2022-08-08T01:22:10.012Z,63.51
2022-08-08T01:24:50.821Z,63.49
2022-08-08T01:27:46.331Z,63.32
2022-08-08T01:31:05.933Z,63.88
2022-08-08T01:34:20.636Z,63.77
2022-08-08T01:37:56.900Z,63.93
2022-08-08T01:40:16.617Z,63.78
2022-08-08T01:42:51.880Z,64.29
2022-08-08T01:45:37.508Z,64.15
2022-08-08T01:48:23.641Z,63.97
2022-08-08T01:51:31.362Z,63.88
2022-08-08T01:55:17.385Z,63.72
2022-08-08T01:57:04.691Z,63.56
2022-08-08T02:00:02.347Z,63.96
2022-08-08T02:02:41.654Z,64.07
2022-08-08T02:05:23.194Z,63.57
2022-08-08T02:08:02.391Z,63.88
2022-08-08T02:10:44.647Z,64.40
2022-08-08T02:13:54.546Z,63.95
2022-08-08T02:16:21.402Z,64.01
2022-08-08T02:18:58.839Z,64.14
2022-08-08T02:21:48.992Z,64.09
2022-08-08T02:24:24.456Z,63.74
2022-08-08T02:26:57.991Z,64.06
2022-08-08T02:29:46.780Z,63.76
2022-08-08T02:32:33.061Z,63.70
2022-08-08T02:35:22.107Z,64.42
2022-08-08T02:38:25.272Z,64.34
2022-08-08T02:41:17.974Z,64.80
2022-08-08T02:44:42.463Z,64.81
2022-08-08T02:47:58.281Z,64.93
2022-08-08T02:50:52.878Z,65.27
2022-08-08T02:53:53.402Z,65.33
2022-08-08T02:56:58.124Z,65.01
2022-08-08T03:00:27.072Z,65.28
2022-08-08T03:05:00.854Z,64.88
2022-08-08T03:06:35.078Z,64.85
2022-08-08T03:09:45.030Z,64.72
2022-08-08T03:13:07.334Z,64.94
2022-08-08T03:16:38.919Z,65.02
2022-08-08T03:19:50.925Z,65.36
2022-08-08T03:22:38.194Z,65.28
2022-08-08T03:25:14.517Z,65.40
2022-08-08T03:27:47.564Z,65.78
2022-08-08T03:30:24.496Z,65.82
2022-08-08T03:33:53.899Z,64.86
2022-08-08T03:35:59.166Z,65.50
2022-08-08T03:38:57.456Z,65.50
2022-08-08T03:42:12.303Z,64.89
2022-08-08T03:44:04.016Z,64.72
2022-08-08T03:46:32.643Z,65.21
2022-08-08T03:49:54.891Z,65.37
2022-08-08T03:51:53.418Z,65.44
2022-08-08T03:54:41.853Z,65.52
2022-08-08T03:58:33.248Z,65.56
2022-08-08T04:00:11.499Z,65.30
2022-08-08T04:02:46.913Z,65.29
2022-08-08T04:05:19.429Z,65.40
2022-08-08T04:07:50.814Z,64.91
2022-08-08T04:10:18.833Z,65.27
2022-08-08T04:12:48.039Z,65.79
2022-08-08T04:15:17.725Z,66.27
2022-08-08T04:17:58.726Z,66.01
2022-08-08T04:20:28.227Z,66.37
2022-08-08T04:22:58.342Z,66.14
2022-08-08T04:25:30.068Z,65.93
2022-08-08T04:28:35.401Z,66.23
2022-08-08T04:30:50.289Z,67.41
2022-08-08T04:33:22.881Z,66.80
2022-08-08T04:35:51.759Z,68.09
2022-08-08T04:38:21.609Z,67.96
2022-08-08T04:40:53.408Z,67.77
2022-08-08T04:43:32.216Z,68.87
2022-08-08T04:46:11.326Z,68.63
2022-08-08T04:48:40.180Z,69.29
2022-08-08T04:51:08.133Z,69.20
2022-08-08T04:54:37.013Z,68.67
2022-08-08T04:56:24.546Z,69.66
2022-08-08T04:58:53.688Z,70.31
2022-08-08T05:01:21.823Z,69.94
2022-08-08T05:04:09.414Z,69.70
2022-08-08T05:06:39.306Z,69.28
2022-08-08T05:09:07.196Z,70.30
2022-08-08T05:11:39.043Z,70.24
2022-08-08T05:14:12.296Z,71.31
2022-08-08T05:16:51.309Z,70.54
2022-08-08T05:20:09.431Z,71.11
2022-08-08T05:22:11.692Z,71.06
2022-08-08T05:24:40.241Z,70.20
2022-08-08T05:27:08.466Z,70.56
2022-08-08T05:29:37.923Z,70.75
2022-08-08T05:32:09.970Z,71.35
2022-08-08T05:34:43.643Z,71.20
2022-08-08T05:37:17.316Z,72.18
2022-08-08T05:39:48.376Z,72.21
2022-08-08T05:42:16.353Z,72.54
2022-08-08T05:44:51.751Z,71.60
2022-08-08T05:47:22.097Z,70.90
2022-08-08T05:49:54.424Z,71.51
2022-08-08T05:52:32.088Z,74.39
2022-08-08T05:55:07.437Z,73.87
2022-08-08T05:58:04.789Z,72.55
2022-08-08T06:00:34.277Z,71.39
2022-08-08T06:03:17.446Z,71.04
2022-08-08T06:05:56.765Z,71.69
2022-08-08T06:08:34.617Z,71.67
2022-08-08T06:11:04.177Z,70.92
2022-08-08T06:13:36.046Z,70.68
2022-08-08T06:16:36.529Z,70.56
2022-08-08T06:19:05.203Z,71.41
2022-08-08T06:21:57.789Z,72.62
2022-08-08T06:24:30.374Z,72.77
2022-08-08T06:27:05.550Z,73.19
2022-08-08T06:29:59.360Z,73.31
2022-08-08T06:32:29.873Z,72.47
2022-08-08T06:36:04.919Z,72.79
2022-08-08T06:37:56.108Z,72.09
2022-08-08T06:40:27.210Z,73.08
2022-08-08T06:42:56.586Z,72.20
2022-08-08T06:45:25.035Z,71.75
2022-08-08T06:48:01.425Z,73.05
2022-08-08T06:50:33.475Z,72.59
2022-08-08T06:53:13.824Z,73.20
2022-08-08T06:55:46.878Z,73.85
2022-08-08T06:58:15.479Z,73.88
2022-08-08T07:00:51.055Z,72.16
2022-08-08T07:03:51.887Z,71.19
2022-08-08T07:06:17.494Z,70.84
2022-08-08T07:08:48.172Z,71.32
2022-08-08T07:11:22.518Z,71.55
2022-08-08T07:14:01.030Z,72.03
2022-08-08T07:16:33.551Z,70.46
2022-08-08T07:19:13.421Z,70.86
2022-08-08T07:21:45.925Z,69.39
2022-08-08T07:24:22.940Z,71.21
2022-08-08T07:26:53.995Z,68.96
2022-08-08T07:29:59.792Z,67.78
2022-08-08T07:32:15.820Z,69.01
2022-08-08T07:34:59.416Z,68.43
2022-08-08T07:37:55.473Z,69.20
2022-08-08T07:40:21.003Z,69.67
2022-08-08T07:42:57.461Z,69.89
2022-08-08T07:45:34.355Z,70.15
2022-08-08T07:48:05.226Z,69.07
2022-08-08T07:50:34.845Z,69.27
2022-08-08T07:53:08.465Z,70.38
2022-08-08T07:55:37.532Z,69.42
2022-08-08T07:58:13.498Z,69.92
2022-08-08T08:00:44.750Z,69.55
2022-08-08T08:03:20.751Z,68.56
2022-08-08T08:05:53.551Z,68.05
2022-08-08T08:08:22.481Z,67.55
2022-08-08T08:10:52.552Z,68.24
2022-08-08T08:14:06.078Z,67.28
2022-08-08T08:18:56.678Z,66.18
2022-08-08T08:21:44.432Z,65.44
2022-08-08T08:24:15.737Z,65.11
2022-08-08T08:26:52.729Z,65.67
2022-08-08T08:29:22.741Z,64.41
2022-08-08T08:31:57.301Z,64.68
2022-08-08T08:34:32.360Z,63.74
2022-08-08T08:37:07.651Z,64.07
2022-08-08T08:39:59.977Z,62.69
2022-08-08T08:42:32.051Z,62.55
2022-08-08T08:45:21.614Z,63.35
2022-08-08T08:47:53.612Z,63.10
2022-08-08T08:50:33.109Z,61.36
2022-08-08T08:53:28.042Z,61.45
2022-08-08T08:55:56.186Z,60.98
2022-08-08T08:58:33.609Z,62.44
2022-08-08T09:01:09.510Z,61.08
2022-08-08T09:03:46.655Z,60.34
2022-08-08T09:06:28.711Z,62.04
2022-08-08T09:09:25.898Z,60.08
2022-08-08T09:12:06.080Z,59.86
2022-08-08T09:14:36.208Z,60.36
2022-08-08T09:17:17.457Z,60.09
2022-08-08T09:22:01.801Z,59.71
2022-08-08T09:22:35.026Z,59.42
2022-08-08T09:25:05.732Z,61.32
2022-08-08T09:27:41.876Z,61.43
2022-08-08T09:30:26.864Z,59.37
2022-08-08T09:33:55.475Z,57.69
2022-08-08T09:35:49.688Z,58.26
2022-08-08T09:38:31.965Z,59.85
2022-08-08T09:41:06.028Z,56.65
2022-08-08T09:44:06.470Z,57.25
2022-08-08T09:46:31.253Z,56.99
2022-08-08T09:49:17.920Z,57.13
2022-08-08T09:52:06.038Z,56.70
2022-08-08T09:54:44.059Z,56.69
2022-08-08T09:57:19.438Z,58.44
2022-08-08T10:00:28.679Z,57.01
2022-08-08T10:02:45.072Z,56.75
2022-08-08T10:05:16.188Z,56.34
2022-08-08T10:08:00.870Z,56.78
2022-08-08T10:10:31.862Z,56.79
2022-08-08T10:13:13.851Z,55.93
2022-08-08T10:15:59.363Z,55.27
2022-08-08T10:18:31.661Z,56.31
2022-08-08T10:21:22.585Z,55.97
2022-08-08T10:23:58.829Z,56.16
2022-08-08T10:26:58.709Z,55.42
2022-08-08T10:29:28.138Z,56.39
2022-08-08T10:32:16.952Z,56.40
2022-08-08T10:34:57.191Z,56.80
2022-08-08T10:37:31.655Z,55.62
2022-08-08T10:40:06.881Z,55.90
2022-08-08T10:42:37.571Z,55.16
2022-08-08T10:45:09.301Z,55.17
2022-08-08T10:47:43.977Z,55.21
2022-08-08T10:50:16.175Z,55.16
2022-08-08T10:52:44.449Z,55.15
2022-08-08T10:55:15.532Z,54.96
2022-08-08T10:58:05.937Z,55.45
2022-08-08T11:00:48.478Z,54.29
2022-08-08T11:03:37.080Z,55.38
2022-08-08T11:06:12.645Z,54.61
2022-08-08T11:08:50.137Z,54.18
2022-08-08T11:11:59.735Z,54.22
2022-08-08T11:14:12.308Z,54.35
2022-08-08T11:16:47.223Z,53.81
2022-08-08T11:19:17.207Z,54.77
2022-08-08T11:21:53.861Z,55.18
2022-08-08T11:24:26.647Z,55.58
2022-08-08T11:26:57.124Z,55.58
2022-08-08T11:29:41.287Z,55.86
2022-08-08T11:32:19.070Z,55.62
2022-08-08T11:38:37.074Z,55.78
2022-08-08T11:40:26.450Z,55.59
2022-08-08T11:42:55.796Z,54.92
2022-08-08T11:45:23.840Z,54.16
2022-08-08T11:48:02.774Z,54.47
2022-08-08T11:50:33.710Z,53.51
2022-08-08T11:53:06.058Z,53.96
2022-08-08T11:55:36.392Z,54.17
2022-08-08T11:58:14.357Z,55.02
2022-08-08T12:00:47.173Z,55.48
2022-08-08T12:03:22.223Z,56.03
2022-08-08T12:05:51.724Z,55.29
2022-08-08T12:08:31.729Z,55.29
2022-08-08T12:11:02.481Z,56.30
2022-08-08T12:13:38.517Z,56.11
2022-08-08T12:16:20.196Z,55.50
2022-08-08T12:19:01.948Z,56.00
2022-08-08T12:21:58.683Z,56.25
2022-08-08T12:24:28.084Z,56.23
2022-08-08T12:26:58.618Z,55.46
2022-08-08T12:29:40.187Z,55.78
2022-08-08T12:32:13.507Z,55.64
2022-08-08T12:34:57.501Z,55.22
2022-08-08T12:37:40.435Z,54.92
2022-08-08T12:40:23.111Z,55.02
2022-08-08T12:42:53.521Z,54.44
2022-08-08T12:45:59.744Z,55.38
2022-08-08T12:48:37.610Z,55.34
2022-08-08T12:51:11.701Z,54.81
2022-08-08T12:53:58.580Z,55.94
2022-08-08T12:56:34.711Z,56.91
2022-08-08T12:59:03.146Z,56.45
2022-08-08T13:01:36.588Z,56.87
2022-08-08T13:04:18.635Z,56.74
2022-08-08T13:07:00.757Z,56.78
2022-08-08T13:09:33.794Z,57.01
2022-08-08T13:12:29.621Z,56.67
2022-08-08T13:15:05.568Z,56.07
2022-08-08T13:18:10.107Z,55.82
2022-08-08T13:20:23.700Z,55.71
2022-08-08T13:25:51.017Z,55.00
2022-08-08T13:28:32.372Z,55.10
2022-08-08T13:31:03.830Z,54.74
2022-08-08T13:33:42.740Z,54.50
2022-08-08T13:36:11.757Z,54.45
2022-08-08T13:38:41.128Z,53.22
2022-08-08T13:41:16.136Z,53.19
2022-08-08T13:43:46.683Z,53.20
2022-08-08T13:46:16.260Z,53.78
2022-08-08T13:49:11.265Z,54.77
2022-08-08T13:51:41.773Z,55.53
2022-08-08T13:54:21.530Z,55.79
2022-08-08T13:57:00.922Z,56.28
2022-08-08T13:59:33.315Z,56.63
2022-08-08T14:02:10.572Z,55.90
2022-08-08T14:04:49.328Z,55.57
2022-08-08T14:07:22.314Z,56.58
2022-08-08T14:10:05.253Z,56.18
2022-08-08T14:12:39.887Z,56.07
2022-08-08T14:15:22.932Z,56.42
2022-08-08T14:18:34.955Z,56.32
2022-08-08T14:20:56.958Z,57.08
2022-08-08T14:24:04.795Z,57.22
2022-08-08T14:26:27.976Z,56.68
2022-08-08T14:28:57.428Z,56.79
2022-08-08T14:32:05.737Z,56.57
2022-08-08T14:34:22.807Z,56.03
2022-08-08T14:36:54.338Z,56.40
2022-08-08T14:39:24.828Z,56.37
2022-08-08T14:42:03.137Z,55.95
2022-08-08T14:44:35.485Z,55.74
2022-08-08T14:47:20.822Z,55.96
2022-08-08T14:50:06.062Z,56.25
2022-08-08T14:52:42.802Z,56.35
2022-08-08T14:55:11.352Z,55.94
2022-08-08T14:58:02.555Z,56.18
2022-08-08T15:00:32.367Z,55.67
2022-08-08T15:03:15.558Z,55.98
2022-08-08T15:05:53.633Z,55.85
2022-08-08T15:08:34.495Z,56.06
2022-08-08T15:11:06.343Z,56.32
2022-08-08T15:13:40.718Z,56.11
2022-08-08T15:16:23.321Z,56.92
2022-08-08T15:18:51.999Z,55.77
2022-08-08T15:21:20.810Z,55.99
2022-08-08T15:23:51.227Z,56.17
2022-08-08T15:26:19.790Z,56.04
2022-08-08T15:28:53.136Z,56.19
2022-08-08T15:31:56.250Z,56.48
2022-08-08T15:34:30.070Z,56.54
2022-08-08T15:36:57.185Z,56.72
2022-08-08T15:39:25.818Z,56.58
2022-08-08T15:41:54.010Z,56.85
2022-08-08T15:44:23.158Z,56.50
2022-08-08T15:46:51.257Z,56.85
2022-08-08T15:49:20.451Z,56.66
2022-08-08T15:51:50.115Z,56.85
2022-08-08T15:54:18.903Z,56.70
2022-08-08T15:57:07.598Z,56.51
2022-08-08T16:00:06.177Z,56.58
2022-08-08T16:02:30.881Z,56.32
2022-08-08T16:04:59.490Z,56.17
2022-08-08T16:07:50.977Z,56.44
2022-08-08T16:13:10.366Z,56.14
2022-08-08T16:13:29.311Z,56.75
2022-08-08T16:15:58.703Z,56.46
2022-08-08T16:18:36.820Z,56.63
2022-08-08T16:21:20.796Z,56.67
2022-08-08T16:23:55.528Z,56.87
2022-08-08T16:26:34.238Z,56.70
2022-08-08T16:29:09.053Z,57.57
2022-08-08T16:31:48.633Z,57.13
2022-08-08T16:34:18.371Z,57.78
2022-08-08T16:36:49.270Z,57.52
2022-08-08T16:39:59.943Z,58.19
2022-08-08T16:42:18.017Z,58.40
2022-08-08T16:44:47.492Z,58.94
2022-08-08T16:47:40.382Z,59.84
2022-08-08T16:50:14.110Z,60.24
2022-08-08T16:55:05.580Z,59.82
2022-08-08T16:55:54.076Z,60.52
2022-08-08T16:58:20.819Z,60.73
2022-08-08T17:00:51.761Z,60.68
2022-08-08T17:03:24.731Z,61.47
2022-08-08T17:06:36.032Z,61.56
2022-08-08T17:08:56.662Z,61.64
2022-08-08T17:11:27.955Z,61.20
2022-08-08T17:14:01.406Z,61.48
2022-08-08T17:16:29.865Z,61.52
2022-08-08T17:19:00.694Z,62.20
2022-08-08T17:21:37.168Z,61.96
2022-08-08T17:24:22.036Z,62.42
2022-08-08T17:26:57.905Z,61.95
2022-08-08T17:29:26.591Z,61.87
2022-08-08T17:31:54.321Z,61.97
2022-08-08T17:34:47.856Z,61.93
2022-08-08T17:37:14.699Z,61.64
2022-08-08T17:40:03.361Z,62.03
2022-08-08T17:42:30.524Z,62.06
2022-08-08T17:44:58.507Z,61.69
2022-08-08T17:47:27.855Z,61.84
2022-08-08T17:50:02.515Z,61.68
2022-08-08T17:52:31.426Z,62.03
2022-08-08T17:55:05.485Z,61.63
2022-08-08T17:57:37.509Z,62.19
2022-08-08T18:00:13.282Z,61.91
2022-08-08T18:02:52.385Z,62.29
2022-08-08T18:05:48.530Z,62.46
2022-08-08T18:08:24.704Z,62.59
2022-08-08T18:11:14.600Z,62.58
2022-08-08T18:13:44.204Z,62.47
2022-08-08T18:16:20.615Z,62.21
2022-08-08T18:18:53.805Z,62.27
2022-08-08T18:21:59.701Z,62.07
2022-08-08T18:24:18.899Z,63.07
2022-08-08T18:26:54.629Z,62.61
2022-08-08T18:29:27.124Z,62.60
2022-08-08T18:31:58.884Z,62.80
2022-08-08T18:34:27.867Z,63.46
2022-08-08T18:36:57.185Z,63.35
2022-08-08T18:39:28.254Z,62.94
2022-08-08T18:42:03.305Z,63.17
2022-08-08T18:44:33.144Z,62.83
2022-08-08T18:47:02.959Z,63.08
2022-08-08T18:49:32.575Z,63.32
2022-08-08T18:52:18.226Z,63.34
2022-08-08T18:55:00.510Z,63.36
2022-08-08T18:57:41.640Z,62.67
2022-08-08T19:00:15.759Z,62.27
2022-08-08T19:02:54.714Z,61.87
2022-08-08T19:05:24.234Z,61.53
2022-08-08T19:07:59.945Z,61.75
2022-08-08T19:10:28.438Z,61.72
2022-08-08T19:12:57.873Z,61.73
2022-08-08T19:15:33.941Z,61.62
2022-08-08T19:18:33.191Z,62.36
2022-08-08T19:20:53.851Z,62.83
2022-08-08T19:23:23.746Z,63.05
2022-08-08T19:26:20.231Z,63.04
2022-08-08T19:28:41.601Z,62.23
2022-08-08T19:31:10.008Z,63.16
2022-08-08T19:34:04.299Z,62.63
2022-08-08T19:36:28.617Z,62.65
2022-08-08T19:38:58.061Z,61.98
2022-08-08T19:41:30.210Z,62.32
2022-08-08T19:44:04.140Z,61.90
2022-08-08T19:46:40.531Z,61.16
2022-08-08T19:49:09.751Z,61.62
2022-08-08T19:51:41.447Z,61.90
2022-08-08T19:54:13.148Z,61.79
2022-08-08T19:56:48.537Z,61.45
2022-08-08T19:59:18.996Z,61.66
2022-08-08T20:02:03.013Z,61.45
2022-08-08T20:04:33.209Z,62.01
2022-08-08T20:07:05.299Z,61.96
2022-08-08T20:09:55.690Z,61.64
2022-08-08T20:12:31.562Z,61.69
2022-08-08T20:15:14.322Z,61.65
2022-08-08T20:17:46.308Z,61.69
2022-08-08T20:20:19.717Z,61.94
2022-08-08T20:22:52.749Z,61.99
2022-08-08T20:25:24.566Z,62.32
2022-08-08T20:27:54.668Z,62.51
2022-08-08T20:30:53.467Z,62.14
2022-08-08T20:33:20.164Z,62.48
2022-08-08T20:35:58.425Z,62.06
2022-08-08T20:38:32.611Z,62.29
2022-08-08T20:41:06.019Z,63.30
2022-08-08T20:43:49.375Z,63.39
2022-08-08T20:46:20.529Z,64.12
2022-08-08T20:48:51.129Z,63.52
2022-08-08T20:51:20.963Z,63.16
2022-08-08T20:53:59.862Z,63.22
2022-08-08T20:56:34.932Z,63.30
2022-08-08T20:59:06.343Z,63.07
2022-08-08T21:02:05.661Z,63.95
2022-08-08T21:04:27.634Z,63.24
2022-08-08T21:06:56.431Z,63.30
2022-08-08T21:09:31.616Z,63.05
2022-08-08T21:12:14.322Z,63.53
2022-08-08T21:14:48.971Z,63.60
2022-08-08T21:17:17.193Z,63.58
2022-08-08T21:19:47.497Z,63.94
2022-08-08T21:22:15.998Z,63.78
2022-08-08T21:24:52.458Z,63.45
2022-08-08T21:27:38.671Z,63.80
2022-08-08T21:30:18.970Z,63.82
2022-08-08T21:32:51.523Z,63.91
2022-08-08T21:36:14.317Z,63.76
2022-08-08T21:38:16.043Z,63.65
2022-08-08T21:40:55.843Z,64.21
2022-08-08T21:43:33.259Z,64.11
2022-08-08T21:48:06.689Z,63.85
2022-08-08T21:48:52.099Z,64.09
2022-08-08T21:51:45.870Z,63.79
2022-08-08T21:54:36.073Z,64.02
2022-08-08T21:56:59.167Z,64.04
2022-08-08T22:00:03.257Z,64.03
2022-08-08T22:02:19.559Z,64.08
2022-08-08T22:04:51.484Z,64.35
2022-08-08T22:07:19.349Z,64.32
2022-08-08T22:09:47.399Z,63.98
2022-08-08T22:12:16.930Z,63.71
2022-08-08T22:14:47.359Z,64.21
2022-08-08T22:17:18.333Z,64.28
2022-08-08T22:20:10.494Z,64.24
2022-08-08T22:22:37.905Z,64.83
2022-08-08T22:25:12.467Z,64.65
2022-08-08T22:28:03.038Z,64.81
2022-08-08T22:30:34.261Z,65.20
2022-08-08T22:33:02.814Z,65.22
2022-08-08T22:36:04.034Z,65.63
2022-08-08T22:38:24.752Z,66.33
2022-08-08T22:40:52.526Z,65.57
2022-08-08T22:43:20.265Z,66.27
2022-08-08T22:45:52.609Z,66.21
2022-08-08T22:48:21.510Z,66.08
2022-08-08T22:50:49.650Z,66.10
2022-08-08T22:54:34.177Z,65.78
2022-08-08T22:56:06.945Z,65.41
2022-08-08T22:58:35.247Z,65.84
2022-08-08T23:01:26.702Z,66.63
2022-08-08T23:03:56.842Z,67.02
2022-08-08T23:06:25.292Z,66.57
2022-08-08T23:08:54.794Z,65.96
2022-08-08T23:11:30.744Z,65.54
2022-08-08T23:14:12.628Z,65.79
2022-08-08T23:16:44.229Z,65.44
2022-08-08T23:19:16.120Z,65.44
2022-08-08T23:21:46.899Z,65.14
2022-08-08T23:24:22.546Z,65.43
2022-08-08T23:26:53.459Z,65.85
2022-08-08T23:29:23.995Z,65.36
2022-08-08T23:31:53.303Z,65.22
2022-08-08T23:34:22.133Z,65.86
2022-08-08T23:36:56.469Z,65.83
2022-08-08T23:39:26.243Z,65.99
2022-08-08T23:42:00.508Z,66.14
2022-08-08T23:44:29.953Z,66.24
2022-08-08T23:49:02.867Z,66.13
2022-08-08T23:50:02.937Z,66.01
2022-08-08T23:52:31.843Z,66.04
2022-08-08T23:55:07.482Z,66.23
2022-08-08T23:57:52.286Z,66.50
